IRA518 OIAA-OISS
Flight info
| Callsign | IRA518 |
|---|---|
| Flight time | 1h 1m |
| Altitude | 29000 |
| Route | DEMPO G665 KAVIL |
| Aircraft | B38M/M-SDE1FGHILORVWXY/HB1 |
Departure
| Time | 2026-05-08 19:35 |
|---|---|
| Airport | Abadan Ayatollah Jami International Airport (OIAA) |
Arrival
| Time | 2026-05-08 20:36 |
|---|---|
| Airport | Shiraz Shahid Dastghaib International Airport (OISS) |
| Time | Latitude | Longitude | Altitude | Speed | Heading |
|---|---|---|---|---|---|
| 2026-05-08 19:18 | 30.36404 | 48.22838 | 26 ft | 0 kts | 308° |
| 2026-05-08 19:26 | 30.36402 | 48.22841 | 24 ft | 3 kts | 307° |
| 2026-05-08 19:27 | 30.36392 | 48.22862 | 25 ft | 4 kts | 269° |
| 2026-05-08 19:27 | 30.36399 | 48.22891 | 25 ft | 3 kts | 250° |
| 2026-05-08 19:27 | 30.36408 | 48.22913 | 27 ft | 4 kts | 216° |
| 2026-05-08 19:27 | 30.36430 | 48.22917 | 24 ft | 4 kts | 160° |
| 2026-05-08 19:28 | 30.36445 | 48.22908 | 25 ft | 1 kts | 145° |
| 2026-05-08 19:28 | 30.36447 | 48.22906 | 24 ft | 0 kts | 145° |
| 2026-05-08 19:30 | 30.36444 | 48.22909 | 26 ft | 2 kts | 145° |
| 2026-05-08 19:30 | 30.36428 | 48.22922 | 25 ft | 4 kts | 145° |
| 2026-05-08 19:30 | 30.36397 | 48.22946 | 24 ft | 6 kts | 145° |
| 2026-05-08 19:31 | 30.36355 | 48.22981 | 24 ft | 9 kts | 145° |
| 2026-05-08 19:31 | 30.36327 | 48.23047 | 24 ft | 10 kts | 98° |
| 2026-05-08 19:31 | 30.36306 | 48.23133 | 26 ft | 12 kts | 132° |
| 2026-05-08 19:31 | 30.36237 | 48.23192 | 26 ft | 13 kts | 144° |
| 2026-05-08 19:32 | 30.36157 | 48.23260 | 24 ft | 15 kts | 144° |
| 2026-05-08 19:32 | 30.36065 | 48.23336 | 24 ft | 17 kts | 144° |
| 2026-05-08 19:32 | 30.35964 | 48.23421 | 26 ft | 19 kts | 144° |
| 2026-05-08 19:32 | 30.35853 | 48.23515 | 24 ft | 21 kts | 144° |
| 2026-05-08 19:33 | 30.35730 | 48.23618 | 24 ft | 23 kts | 144° |
| 2026-05-08 19:33 | 30.35597 | 48.23728 | 23 ft | 24 kts | 144° |
| 2026-05-08 19:33 | 30.35510 | 48.23873 | 25 ft | 21 kts | 74° |
| 2026-05-08 19:33 | 30.35610 | 48.23967 | 25 ft | 12 kts | 358° |
| 2026-05-08 19:34 | 30.35652 | 48.23943 | 23 ft | 0 kts | 321° |
| 2026-05-08 19:34 | 30.35662 | 48.23934 | 23 ft | 4 kts | 321° |
| 2026-05-08 19:34 | 30.35733 | 48.23868 | 23 ft | 22 kts | 322° |
| 2026-05-08 19:34 | 30.35982 | 48.23659 | 27 ft | 76 kts | 323° |
| 2026-05-08 19:35 | 30.36624 | 48.23124 | 25 ft | 149 kts | 324° |
| 2026-05-08 19:35 | 30.37576 | 48.22293 | 354 ft | 188 kts | 322° |
| 2026-05-08 19:35 | 30.38682 | 48.21287 | 863 ft | 217 kts | 321° |
| 2026-05-08 19:35 | 30.39856 | 48.20139 | 2036 ft | 217 kts | 322° |
| 2026-05-08 19:36 | 30.41014 | 48.19021 | 3330 ft | 216 kts | 319° |
| 2026-05-08 19:36 | 30.42229 | 48.17861 | 4016 ft | 248 kts | 320° |
| 2026-05-08 19:36 | 30.42236 | 48.17854 | 4015 ft | 248 kts | 320° |
| 2026-05-08 19:36 | 30.43110 | 48.17038 | 3897 ft | 286 kts | 320° |
| 2026-05-08 19:37 | 30.44696 | 48.15536 | 4555 ft | 291 kts | 319° |
| 2026-05-08 19:37 | 30.46278 | 48.14163 | 5806 ft | 281 kts | 327° |
| 2026-05-08 19:37 | 30.48109 | 48.13313 | 6674 ft | 293 kts | 344° |
| 2026-05-08 19:37 | 30.50267 | 48.13111 | 6651 ft | 335 kts | 2° |
| 2026-05-08 19:38 | 30.52612 | 48.13865 | 6834 ft | 359 kts | 27° |
| 2026-05-08 19:38 | 30.54585 | 48.15546 | 8124 ft | 345 kts | 39° |
| 2026-05-08 19:38 | 30.56112 | 48.17531 | 8941 ft | 316 kts | 58° |
| 2026-05-08 19:38 | 30.56928 | 48.19837 | 9256 ft | 309 kts | 79° |
| 2026-05-08 19:39 | 30.56887 | 48.22309 | 9654 ft | 307 kts | 107° |
| 2026-05-08 19:39 | 30.56005 | 48.24542 | 10456 ft | 308 kts | 126° |
| 2026-05-08 19:39 | 30.54760 | 48.26644 | 10894 ft | 326 kts | 125° |
| 2026-05-08 19:39 | 30.53486 | 48.28910 | 11241 ft | 346 kts | 124° |
| 2026-05-08 19:40 | 30.52145 | 48.31327 | 11547 ft | 365 kts | 124° |
| 2026-05-08 19:40 | 30.50733 | 48.33870 | 11838 ft | 383 kts | 124° |
| 2026-05-08 19:40 | 30.49293 | 48.36446 | 12758 ft | 378 kts | 125° |
| 2026-05-08 19:40 | 30.47843 | 48.38999 | 13575 ft | 381 kts | 125° |
| 2026-05-08 19:41 | 30.46383 | 48.41579 | 14203 ft | 386 kts | 125° |
| 2026-05-08 19:41 | 30.44904 | 48.44191 | 14867 ft | 389 kts | 125° |
| 2026-05-08 19:41 | 30.43411 | 48.46823 | 15581 ft | 391 kts | 125° |
| 2026-05-08 19:41 | 30.41915 | 48.49460 | 16236 ft | 394 kts | 125° |
| 2026-05-08 19:42 | 30.40411 | 48.52109 | 16884 ft | 397 kts | 126° |
| 2026-05-08 19:42 | 30.38888 | 48.54788 | 17536 ft | 400 kts | 126° |
| 2026-05-08 19:42 | 30.37347 | 48.57497 | 18163 ft | 404 kts | 126° |
| 2026-05-08 19:42 | 30.35795 | 48.60221 | 18709 ft | 407 kts | 126° |
| 2026-05-08 19:43 | 30.34227 | 48.62972 | 19220 ft | 411 kts | 126° |
| 2026-05-08 19:43 | 30.32642 | 48.65751 | 19713 ft | 416 kts | 127° |
| 2026-05-08 19:43 | 30.31044 | 48.68550 | 20257 ft | 419 kts | 127° |
| 2026-05-08 19:43 | 30.29478 | 48.71420 | 20726 ft | 426 kts | 121° |
| 2026-05-08 19:44 | 30.28500 | 48.74697 | 21233 ft | 436 kts | 105° |
| 2026-05-08 19:44 | 30.27858 | 48.78146 | 21646 ft | 442 kts | 105° |
| 2026-05-08 19:44 | 30.27217 | 48.81643 | 22104 ft | 446 kts | 105° |
| 2026-05-08 19:44 | 30.26592 | 48.85133 | 22550 ft | 451 kts | 105° |
| 2026-05-08 19:45 | 30.25951 | 48.88751 | 22997 ft | 456 kts | 105° |
| 2026-05-08 19:45 | 30.25323 | 48.92308 | 23436 ft | 460 kts | 106° |
| 2026-05-08 19:45 | 30.24683 | 48.95935 | 23885 ft | 460 kts | 106° |
| 2026-05-08 19:45 | 30.24049 | 48.99523 | 24736 ft | 449 kts | 107° |
| 2026-05-08 19:46 | 30.23434 | 49.03007 | 25653 ft | 436 kts | 108° |
| 2026-05-08 19:46 | 30.22832 | 49.06396 | 26543 ft | 425 kts | 108° |
| 2026-05-08 19:46 | 30.21661 | 49.12972 | 27932 ft | 412 kts | 109° |
| 2026-05-08 19:47 | 30.21085 | 49.16202 | 28529 ft | 408 kts | 110° |
| 2026-05-08 19:47 | 30.20513 | 49.19409 | 28925 ft | 408 kts | 110° |
| 2026-05-08 19:47 | 30.19376 | 49.25772 | 28957 ft | 398 kts | 110° |
| 2026-05-08 19:48 | 30.18253 | 49.32033 | 28920 ft | 398 kts | 110° |
| 2026-05-08 19:48 | 30.17127 | 49.38290 | 28918 ft | 399 kts | 110° |
| 2026-05-08 19:49 | 30.15995 | 49.44564 | 28917 ft | 399 kts | 110° |
| 2026-05-08 19:49 | 30.14861 | 49.50834 | 28916 ft | 399 kts | 110° |
| 2026-05-08 19:50 | 30.13727 | 49.57092 | 28912 ft | 398 kts | 110° |
| 2026-05-08 19:50 | 30.12565 | 49.63331 | 28906 ft | 397 kts | 111° |
| 2026-05-08 19:51 | 30.11397 | 49.69565 | 28909 ft | 397 kts | 111° |
| 2026-05-08 19:51 | 30.10226 | 49.75800 | 28894 ft | 397 kts | 111° |
| 2026-05-08 19:52 | 30.09052 | 49.82036 | 28902 ft | 397 kts | 111° |
| 2026-05-08 19:52 | 30.07876 | 49.88270 | 28902 ft | 398 kts | 111° |
| 2026-05-08 19:53 | 30.06696 | 49.94504 | 28906 ft | 397 kts | 111° |
| 2026-05-08 19:53 | 30.05512 | 50.00743 | 28898 ft | 399 kts | 111° |
| 2026-05-08 19:54 | 30.04322 | 50.06993 | 28896 ft | 399 kts | 111° |
| 2026-05-08 19:54 | 30.03128 | 50.13248 | 28880 ft | 399 kts | 111° |
| 2026-05-08 19:55 | 30.01931 | 50.19506 | 28886 ft | 400 kts | 111° |
| 2026-05-08 19:55 | 30.00735 | 50.25737 | 28912 ft | 401 kts | 111° |
| 2026-05-08 19:56 | 29.99526 | 50.32024 | 28910 ft | 401 kts | 111° |
| 2026-05-08 19:56 | 29.98315 | 50.38299 | 28913 ft | 401 kts | 111° |
| 2026-05-08 19:57 | 29.97100 | 50.44581 | 28914 ft | 401 kts | 111° |
| 2026-05-08 19:57 | 29.95885 | 50.50847 | 28923 ft | 402 kts | 111° |
| 2026-05-08 19:58 | 29.94659 | 50.57151 | 28930 ft | 404 kts | 111° |
| 2026-05-08 19:58 | 29.93429 | 50.63461 | 28942 ft | 404 kts | 110° |
| 2026-05-08 19:59 | 29.92194 | 50.69775 | 28950 ft | 404 kts | 111° |
| 2026-05-08 19:59 | 29.90959 | 50.76075 | 28948 ft | 403 kts | 111° |
| 2026-05-08 20:00 | 29.89719 | 50.82385 | 28960 ft | 404 kts | 111° |
| 2026-05-08 20:00 | 29.88477 | 50.88691 | 28937 ft | 404 kts | 110° |
| 2026-05-08 20:01 | 29.87222 | 50.95031 | 28979 ft | 406 kts | 111° |
| 2026-05-08 20:01 | 29.85967 | 51.01356 | 28968 ft | 405 kts | 111° |
| 2026-05-08 20:02 | 29.84716 | 51.07645 | 28995 ft | 406 kts | 111° |
| 2026-05-08 20:02 | 29.83453 | 51.13978 | 28994 ft | 406 kts | 111° |
| 2026-05-08 20:03 | 29.82187 | 51.20310 | 29025 ft | 406 kts | 111° |
| 2026-05-08 20:03 | 29.80916 | 51.26652 | 29020 ft | 406 kts | 111° |
| 2026-05-08 20:04 | 29.79658 | 51.32990 | 28999 ft | 406 kts | 110° |
| 2026-05-08 20:04 | 29.78399 | 51.39325 | 29015 ft | 406 kts | 111° |
| 2026-05-08 20:05 | 29.77136 | 51.45662 | 29048 ft | 407 kts | 111° |
| 2026-05-08 20:05 | 29.75871 | 51.51997 | 29024 ft | 406 kts | 111° |
| 2026-05-08 20:06 | 29.74602 | 51.58330 | 29039 ft | 406 kts | 111° |
| 2026-05-08 20:06 | 29.73334 | 51.64641 | 29085 ft | 405 kts | 111° |
| 2026-05-08 20:07 | 29.72065 | 51.70946 | 29018 ft | 405 kts | 111° |
| 2026-05-08 20:07 | 29.71426 | 51.74108 | 29177 ft | 407 kts | 111° |
| 2026-05-08 20:07 | 29.70788 | 51.77272 | 29055 ft | 404 kts | 111° |
| 2026-05-08 20:08 | 29.69515 | 51.83562 | 29108 ft | 404 kts | 111° |
| 2026-05-08 20:08 | 29.68240 | 51.89842 | 29119 ft | 404 kts | 111° |
| 2026-05-08 20:09 | 29.66960 | 51.96138 | 29087 ft | 404 kts | 111° |
| 2026-05-08 20:09 | 29.65676 | 52.02433 | 29135 ft | 404 kts | 112° |
| 2026-05-08 20:10 | 29.64395 | 52.08722 | 29145 ft | 406 kts | 109° |
| 2026-05-08 20:10 | 29.64121 | 52.10863 | 28991 ft | 414 kts | 98° |
| 2026-05-08 20:10 | 29.64391 | 52.14216 | 28378 ft | 430 kts | 80° |
| 2026-05-08 20:11 | 29.65541 | 52.17403 | 27798 ft | 440 kts | 60° |
| 2026-05-08 20:11 | 29.67485 | 52.20134 | 27234 ft | 445 kts | 41° |
| 2026-05-08 20:11 | 29.70042 | 52.22122 | 26663 ft | 445 kts | 22° |
| 2026-05-08 20:11 | 29.72974 | 52.23173 | 26118 ft | 440 kts | 4° |
| 2026-05-08 20:12 | 29.75994 | 52.23209 | 25566 ft | 432 kts | 346° |
| 2026-05-08 20:12 | 29.78837 | 52.22250 | 24934 ft | 423 kts | 328° |
| 2026-05-08 20:12 | 29.81246 | 52.20388 | 24314 ft | 412 kts | 310° |
| 2026-05-08 20:12 | 29.82981 | 52.17843 | 23731 ft | 401 kts | 292° |
| 2026-05-08 20:13 | 29.84047 | 52.14914 | 23092 ft | 395 kts | 284° |
| 2026-05-08 20:13 | 29.84958 | 52.11921 | 22460 ft | 396 kts | 283° |
| 2026-05-08 20:13 | 29.85863 | 52.08923 | 21837 ft | 397 kts | 283° |
| 2026-05-08 20:13 | 29.86765 | 52.05917 | 21222 ft | 398 kts | 283° |
| 2026-05-08 20:14 | 29.87654 | 52.02898 | 20660 ft | 394 kts | 283° |
| 2026-05-08 20:14 | 29.88507 | 51.99948 | 20077 ft | 383 kts | 283° |
| 2026-05-08 20:14 | 29.89333 | 51.97076 | 19508 ft | 373 kts | 283° |
| 2026-05-08 20:14 | 29.90132 | 51.94268 | 18962 ft | 364 kts | 283° |
| 2026-05-08 20:15 | 29.90869 | 51.91515 | 18432 ft | 353 kts | 277° |
| 2026-05-08 20:15 | 29.90864 | 51.88782 | 17801 ft | 335 kts | 253° |
| 2026-05-08 20:15 | 29.89990 | 51.86373 | 17379 ft | 321 kts | 238° |
| 2026-05-08 20:15 | 29.88672 | 51.84356 | 16920 ft | 311 kts | 226° |
| 2026-05-08 20:16 | 29.87015 | 51.82809 | 16471 ft | 303 kts | 211° |
| 2026-05-08 20:16 | 29.85134 | 51.81854 | 16023 ft | 298 kts | 198° |
| 2026-05-08 20:16 | 29.83067 | 51.81509 | 15563 ft | 299 kts | 183° |
| 2026-05-08 20:16 | 29.81003 | 51.81812 | 15120 ft | 301 kts | 169° |
| 2026-05-08 20:17 | 29.79069 | 51.82728 | 14678 ft | 304 kts | 154° |
| 2026-05-08 20:17 | 29.77403 | 51.84224 | 14333 ft | 306 kts | 138° |
| 2026-05-08 20:17 | 29.76129 | 51.86179 | 13965 ft | 314 kts | 123° |
| 2026-05-08 20:17 | 29.75332 | 51.88525 | 13700 ft | 316 kts | 108° |
| 2026-05-08 20:18 | 29.74754 | 51.90959 | 13475 ft | 316 kts | 110° |
| 2026-05-08 20:18 | 29.74149 | 51.93382 | 13321 ft | 313 kts | 110° |
| 2026-05-08 20:18 | 29.73551 | 51.95776 | 13174 ft | 311 kts | 109° |
| 2026-05-08 20:18 | 29.72946 | 51.98171 | 13052 ft | 311 kts | 110° |
| 2026-05-08 20:19 | 29.72341 | 52.00554 | 12954 ft | 311 kts | 110° |
| 2026-05-08 20:19 | 29.71735 | 52.02937 | 12830 ft | 310 kts | 110° |
| 2026-05-08 20:19 | 29.71130 | 52.05317 | 12685 ft | 309 kts | 110° |
| 2026-05-08 20:19 | 29.70526 | 52.07689 | 12558 ft | 309 kts | 110° |
| 2026-05-08 20:20 | 29.69922 | 52.10057 | 12432 ft | 308 kts | 110° |
| 2026-05-08 20:20 | 29.69319 | 52.12418 | 12301 ft | 308 kts | 110° |
| 2026-05-08 20:20 | 29.68715 | 52.14782 | 12177 ft | 308 kts | 110° |
| 2026-05-08 20:20 | 29.68110 | 52.17145 | 12052 ft | 308 kts | 110° |
| 2026-05-08 20:21 | 29.67506 | 52.19504 | 11929 ft | 307 kts | 110° |
| 2026-05-08 20:21 | 29.66904 | 52.21857 | 11808 ft | 307 kts | 110° |
| 2026-05-08 20:21 | 29.66300 | 52.24211 | 11675 ft | 307 kts | 110° |
| 2026-05-08 20:21 | 29.65698 | 52.26562 | 11562 ft | 306 kts | 109° |
| 2026-05-08 20:22 | 29.65095 | 52.28897 | 11421 ft | 304 kts | 109° |
| 2026-05-08 20:22 | 29.64500 | 52.31226 | 11304 ft | 301 kts | 108° |
| 2026-05-08 20:22 | 29.63923 | 52.33513 | 11171 ft | 294 kts | 108° |
| 2026-05-08 20:22 | 29.63360 | 52.35744 | 11032 ft | 287 kts | 108° |
| 2026-05-08 20:23 | 29.62813 | 52.37912 | 10904 ft | 279 kts | 108° |
| 2026-05-08 20:23 | 29.62278 | 52.40027 | 10744 ft | 271 kts | 108° |
| 2026-05-08 20:23 | 29.61758 | 52.42077 | 10602 ft | 263 kts | 108° |
| 2026-05-08 20:23 | 29.61251 | 52.44069 | 10449 ft | 258 kts | 108° |
| 2026-05-08 20:24 | 29.60745 | 52.46036 | 10357 ft | 255 kts | 108° |
| 2026-05-08 20:24 | 29.60244 | 52.48004 | 10318 ft | 256 kts | 108° |
| 2026-05-08 20:24 | 29.59739 | 52.49967 | 10205 ft | 256 kts | 108° |
| 2026-05-08 20:24 | 29.59231 | 52.51925 | 10090 ft | 256 kts | 108° |
| 2026-05-08 20:25 | 29.58720 | 52.53879 | 9984 ft | 254 kts | 108° |
| 2026-05-08 20:25 | 29.58223 | 52.55785 | 9909 ft | 250 kts | 107° |
| 2026-05-08 20:25 | 29.57741 | 52.57643 | 9795 ft | 239 kts | 108° |
| 2026-05-08 20:25 | 29.57275 | 52.59448 | 9678 ft | 230 kts | 107° |
| 2026-05-08 20:26 | 29.56821 | 52.61193 | 9611 ft | 226 kts | 107° |
| 2026-05-08 20:26 | 29.56372 | 52.62925 | 9592 ft | 226 kts | 108° |
| 2026-05-08 20:26 | 29.55918 | 52.64658 | 9531 ft | 226 kts | 108° |
| 2026-05-08 20:26 | 29.55464 | 52.66382 | 9442 ft | 225 kts | 108° |
| 2026-05-08 20:27 | 29.55013 | 52.68092 | 9354 ft | 224 kts | 108° |
| 2026-05-08 20:27 | 29.54562 | 52.69798 | 9265 ft | 223 kts | 108° |
| 2026-05-08 20:27 | 29.54111 | 52.71501 | 9163 ft | 220 kts | 108° |
| 2026-05-08 20:27 | 29.53675 | 52.73153 | 9037 ft | 213 kts | 108° |
| 2026-05-08 20:28 | 29.53250 | 52.74763 | 8914 ft | 210 kts | 108° |
| 2026-05-08 20:28 | 29.52826 | 52.76361 | 8799 ft | 209 kts | 108° |
| 2026-05-08 20:28 | 29.52403 | 52.77953 | 8705 ft | 208 kts | 108° |
| 2026-05-08 20:28 | 29.51984 | 52.79528 | 8631 ft | 204 kts | 108° |
| 2026-05-08 20:29 | 29.51572 | 52.81079 | 8519 ft | 203 kts | 108° |
| 2026-05-08 20:29 | 29.51161 | 52.82622 | 8407 ft | 202 kts | 108° |
| 2026-05-08 20:29 | 29.50741 | 52.84151 | 8299 ft | 198 kts | 113° |
| 2026-05-08 20:29 | 29.50065 | 52.85465 | 8174 ft | 193 kts | 134° |
| 2026-05-08 20:30 | 29.48960 | 52.86294 | 8022 ft | 184 kts | 167° |
| 2026-05-08 20:30 | 29.47725 | 52.86354 | 7958 ft | 177 kts | 195° |
| 2026-05-08 20:30 | 29.46621 | 52.85789 | 7898 ft | 173 kts | 220° |
| 2026-05-08 20:30 | 29.45854 | 52.84758 | 7811 ft | 170 kts | 244° |
| 2026-05-08 20:31 | 29.45533 | 52.83464 | 7725 ft | 169 kts | 265° |
| 2026-05-08 20:31 | 29.45473 | 52.82110 | 7649 ft | 170 kts | 267° |
| 2026-05-08 20:31 | 29.45411 | 52.80756 | 7569 ft | 170 kts | 269° |
| 2026-05-08 20:31 | 29.45596 | 52.79426 | 7463 ft | 170 kts | 288° |
| 2026-05-08 20:32 | 29.46053 | 52.78177 | 7401 ft | 170 kts | 293° |
| 2026-05-08 20:32 | 29.46543 | 52.76955 | 7382 ft | 166 kts | 293° |
| 2026-05-08 20:32 | 29.47018 | 52.75765 | 7375 ft | 164 kts | 294° |
| 2026-05-08 20:32 | 29.47486 | 52.74587 | 7265 ft | 163 kts | 293° |
| 2026-05-08 20:33 | 29.47949 | 52.73423 | 7080 ft | 158 kts | 294° |
| 2026-05-08 20:33 | 29.48399 | 52.72290 | 6905 ft | 155 kts | 294° |
| 2026-05-08 20:33 | 29.48847 | 52.71163 | 6732 ft | 155 kts | 293° |
| 2026-05-08 20:33 | 29.49292 | 52.70041 | 6550 ft | 154 kts | 294° |
| 2026-05-08 20:34 | 29.49735 | 52.68927 | 6353 ft | 154 kts | 294° |
| 2026-05-08 20:34 | 29.50180 | 52.67808 | 6170 ft | 154 kts | 294° |
| 2026-05-08 20:34 | 29.51067 | 52.65572 | 5763 ft | 153 kts | 294° |
| 2026-05-08 20:35 | 29.51511 | 52.64458 | 5581 ft | 153 kts | 294° |
| 2026-05-08 20:35 | 29.51948 | 52.63354 | 5353 ft | 152 kts | 295° |
| 2026-05-08 20:35 | 29.52378 | 52.62241 | 5175 ft | 152 kts | 294° |
| 2026-05-08 20:35 | 29.52824 | 52.61141 | 5027 ft | 152 kts | 295° |
| 2026-05-08 20:36 | 29.53265 | 52.60046 | 4932 ft | 145 kts | 294° |
| 2026-05-08 20:36 | 29.53631 | 52.59127 | 4919 ft | 82 kts | 295° |
| 2026-05-08 20:36 | 29.53793 | 52.58718 | 4920 ft | 52 kts | 298° |
| 2026-05-08 20:36 | 29.53992 | 52.58694 | 4927 ft | 28 kts | 27° |
| 2026-05-08 20:37 | 29.54166 | 52.58790 | 4923 ft | 29 kts | 25° |
| 2026-05-08 20:37 | 29.54335 | 52.58881 | 4929 ft | 17 kts | 25° |
| 2026-05-08 20:37 | 29.54432 | 52.58935 | 4928 ft | 15 kts | 26° |
| 2026-05-08 20:37 | 29.54511 | 52.58976 | 4929 ft | 0 kts | 24° |